createdAt,value
2018-06-17T00:00:01.330Z,17.33
2018-06-17T00:00:05.434Z,17.32
2018-06-17T00:00:09.649Z,17.35
2018-06-17T00:00:13.976Z,17.36
2018-06-17T00:00:18.178Z,17.28
2018-06-17T00:00:22.277Z,17.32
2018-06-17T00:00:26.481Z,17.42
2018-06-17T00:00:30.691Z,17.33
2018-06-17T00:00:35.004Z,17.39
2018-06-17T00:00:39.205Z,17.35
2018-06-17T00:00:43.197Z,17.3
2018-06-17T00:00:47.405Z,17.33
2018-06-17T00:00:51.611Z,17.36
2018-06-17T00:00:55.921Z,17.33
2018-06-17T00:01:00.076Z,17.36
2018-06-17T00:01:04.182Z,17.36
2018-06-17T00:01:08.185Z,17.33
2018-06-17T00:01:12.388Z,17.28
2018-06-17T00:01:16.493Z,17.28
2018-06-17T00:01:20.810Z,17.35
2018-06-17T00:01:25.017Z,17.33
2018-06-17T00:01:29.331Z,17.32
2018-06-17T00:01:33.648Z,17.36
2018-06-17T00:01:37.754Z,17.33
2018-06-17T00:01:42.074Z,17.3
2018-06-17T00:01:46.175Z,17.27
2018-06-17T00:01:50.393Z,17.33
2018-06-17T00:01:54.708Z,17.36
2018-06-17T00:01:58.912Z,17.33
2018-06-17T00:02:03.118Z,17.33
2018-06-17T00:02:07.003Z,17.27
2018-06-17T00:02:11.202Z,17.33
2018-06-17T00:02:15.192Z,17.27
2018-06-17T00:02:19.392Z,17.39
2018-06-17T00:02:23.485Z,17.35
2018-06-17T00:02:27.688Z,17.3
2018-06-17T00:02:32.001Z,17.35
2018-06-17T00:02:36.215Z,17.35
2018-06-17T00:02:40.423Z,17.38
2018-06-17T00:02:44.630Z,17.27
2018-06-17T00:02:48.947Z,17.27
2018-06-17T00:02:53.150Z,17.28
2018-06-17T00:02:57.366Z,17.32
2018-06-17T00:03:01.580Z,17.33
2018-06-17T00:03:05.673Z,17.4
2018-06-17T00:03:09.553Z,17.45
2018-06-17T00:03:13.658Z,17.3
2018-06-17T00:03:17.974Z,17.46
2018-06-17T00:03:22.073Z,17.38
2018-06-17T00:03:26.276Z,17.32
2018-06-17T00:03:30.480Z,17.35
2018-06-17T00:03:34.685Z,17.32
2018-06-17T00:03:38.948Z,17.32
2018-06-17T00:03:43.150Z,17.33
2018-06-17T00:03:47.352Z,17.32
2018-06-17T00:03:51.461Z,17.32
2018-06-17T00:03:55.771Z,17.36
2018-06-17T00:03:59.864Z,17.28
2018-06-17T00:04:04.069Z,17.38
2018-06-17T00:04:08.169Z,17.36
2018-06-17T00:04:12.280Z,17.35
2018-06-17T00:04:16.634Z,17.35
2018-06-17T00:04:20.628Z,17.33
2018-06-17T00:04:24.827Z,17.38
2018-06-17T00:04:29.142Z,17.3
2018-06-17T00:04:33.463Z,17.3
2018-06-17T00:04:37.563Z,17.33
2018-06-17T00:04:41.556Z,17.36
2018-06-17T00:04:45.874Z,17.45
2018-06-17T00:04:50.075Z,17.39
2018-06-17T00:04:54.401Z,17.32
2018-06-17T00:04:58.755Z,17.35
2018-06-17T00:05:03.066Z,17.42
2018-06-17T00:05:07.054Z,17.42
2018-06-17T00:05:11.260Z,17.43
2018-06-17T00:05:15.460Z,17.32
2018-06-17T00:05:19.768Z,17.42
2018-06-17T00:05:23.762Z,17.43
2018-06-17T00:05:27.865Z,17.43
2018-06-17T00:05:32.071Z,17.33
2018-06-17T00:05:36.171Z,17.43
2018-06-17T00:05:40.265Z,17.32
2018-06-17T00:05:44.474Z,17.38
2018-06-17T00:05:48.679Z,17.33
2018-06-17T00:05:52.990Z,17.3
2018-06-17T00:05:57.198Z,17.39
2018-06-17T00:06:01.505Z,17.43
2018-06-17T00:06:05.502Z,17.38
2018-06-17T00:06:09.711Z,17.35
2018-06-17T00:06:13.908Z,17.32
2018-06-17T00:06:18.217Z,17.42
2018-06-17T00:06:22.417Z,17.45
2018-06-17T00:06:26.617Z,17.36
2018-06-17T00:06:30.923Z,17.45
2018-06-17T00:06:35.231Z,17.42
2018-06-17T00:06:39.327Z,17.43
2018-06-17T00:06:43.647Z,17.33
2018-06-17T00:06:47.639Z,17.42
2018-06-17T00:06:51.843Z,17.47
2018-06-17T00:06:55.942Z,17.46
2018-06-17T00:07:00.143Z,17.43
2018-06-17T00:07:04.138Z,17.42
2018-06-17T00:07:08.451Z,17.42
2018-06-17T00:07:12.763Z,17.45
2018-06-17T00:07:16.968Z,17.47
2018-06-17T00:07:21.280Z,17.42
2018-06-17T00:07:25.589Z,17.4
2018-06-17T00:07:29.792Z,17.46
2018-06-17T00:07:34.002Z,17.35
2018-06-17T00:07:38.101Z,17.47
2018-06-17T00:07:42.206Z,17.42
2018-06-17T00:07:46.419Z,17.49
2018-06-17T00:07:50.731Z,17.38
2018-06-17T00:07:54.720Z,17.49
2018-06-17T00:07:59.032Z,17.42
2018-06-17T00:08:03.024Z,17.36
2018-06-17T00:08:07.332Z,17.49
2018-06-17T00:08:11.653Z,17.42
2018-06-17T00:08:15.977Z,17.39
2018-06-17T00:08:20.295Z,17.39
2018-06-17T00:08:24.572Z,17.39
2018-06-17T00:08:28.879Z,17.47
2018-06-17T00:08:33.085Z,17.46
2018-06-17T00:08:37.286Z,17.51
2018-06-17T00:08:41.382Z,17.39
2018-06-17T00:08:45.477Z,17.54
2018-06-17T00:08:49.836Z,17.43
2018-06-17T00:08:54.147Z,17.45
2018-06-17T00:08:58.241Z,17.47
2018-06-17T00:09:02.553Z,17.54
2018-06-17T00:09:06.698Z,17.49
2018-06-17T00:09:11.020Z,17.42
2018-06-17T00:09:15.118Z,17.46
2018-06-17T00:09:19.420Z,17.4
2018-06-17T00:09:23.622Z,17.43
2018-06-17T00:09:27.611Z,17.45
2018-06-17T00:09:31.708Z,17.46
2018-06-17T00:09:35.915Z,17.43
2018-06-17T00:09:40.007Z,17.47
2018-06-17T00:09:44.317Z,17.46
2018-06-17T00:09:48.528Z,17.46
2018-06-17T00:09:52.847Z,17.47
2018-06-17T00:09:56.945Z,17.42
2018-06-17T00:10:01.299Z,17.46
2018-06-17T00:10:05.346Z,17.47
2018-06-17T00:10:09.335Z,17.46
2018-06-17T00:10:13.661Z,17.47
2018-06-17T00:10:17.968Z,17.42
2018-06-17T00:10:21.961Z,17.46
2018-06-17T00:10:26.272Z,17.45
2018-06-17T00:10:30.367Z,17.42
2018-06-17T00:10:34.457Z,17.55
2018-06-17T00:10:38.765Z,17.46
2018-06-17T00:10:42.974Z,17.42
2018-06-17T00:10:47.281Z,17.46
2018-06-17T00:10:51.271Z,17.46
2018-06-17T00:10:55.585Z,17.39
2018-06-17T00:10:59.690Z,17.51
2018-06-17T00:11:03.726Z,17.39
2018-06-17T00:11:08.058Z,17.42
2018-06-17T00:11:12.263Z,17.43
2018-06-17T00:11:16.356Z,17.42
2018-06-17T00:11:20.584Z,17.51
2018-06-17T00:11:24.785Z,17.42
2018-06-17T00:11:29.097Z,17.45
2018-06-17T00:11:33.402Z,17.47
2018-06-17T00:11:37.714Z,17.45
2018-06-17T00:11:42.030Z,17.45
2018-06-17T00:11:46.024Z,17.4
2018-06-17T00:11:50.121Z,17.49
2018-06-17T00:11:54.433Z,17.47
2018-06-17T00:11:58.750Z,17.47
2018-06-17T00:12:03.213Z,17.38
2018-06-17T00:12:07.535Z,17.45
2018-06-17T00:12:11.747Z,17.38
2018-06-17T00:12:15.849Z,17.47
2018-06-17T00:12:19.945Z,17.42
2018-06-17T00:12:24.151Z,17.42
2018-06-17T00:12:28.242Z,17.45
2018-06-17T00:12:32.443Z,17.45
2018-06-17T00:12:36.756Z,17.51
2018-06-17T00:12:41.068Z,17.47
2018-06-17T00:12:45.168Z,17.45
2018-06-17T00:12:49.373Z,17.42
2018-06-17T00:12:53.678Z,17.43
2018-06-17T00:12:57.878Z,17.47
2018-06-17T00:13:02.082Z,17.46
2018-06-17T00:13:06.177Z,17.45
2018-06-17T00:13:10.383Z,17.47
2018-06-17T00:13:14.588Z,17.43
2018-06-17T00:13:18.902Z,17.45
2018-06-17T00:13:23.208Z,17.45
2018-06-17T00:13:27.423Z,17.51
2018-06-17T00:13:31.629Z,17.51
2018-06-17T00:13:35.944Z,17.47
2018-06-17T00:13:40.251Z,17.47
2018-06-17T00:13:44.450Z,17.53
2018-06-17T00:13:48.652Z,17.45
2018-06-17T00:13:52.904Z,17.46
2018-06-17T00:13:57.213Z,17.43
2018-06-17T00:14:01.527Z,17.47
2018-06-17T00:14:05.743Z,17.47
2018-06-17T00:14:09.845Z,17.47
2018-06-17T00:14:14.154Z,17.45
2018-06-17T00:14:18.359Z,17.47
2018-06-17T00:14:22.608Z,17.42
2018-06-17T00:14:26.706Z,17.46
2018-06-17T00:14:31.009Z,17.49
2018-06-17T00:14:35.218Z,17.54
2018-06-17T00:14:39.527Z,17.46
2018-06-17T00:14:43.632Z,17.43
2018-06-17T00:14:47.944Z,17.53
2018-06-17T00:14:52.271Z,17.42
2018-06-17T00:14:56.367Z,17.51
2018-06-17T00:15:00.570Z,17.47
2018-06-17T00:15:04.565Z,17.51
2018-06-17T00:15:08.773Z,17.45
2018-06-17T00:15:12.865Z,17.46
2018-06-17T00:15:17.067Z,17.55
2018-06-17T00:15:21.374Z,17.49
2018-06-17T00:15:25.366Z,17.53
2018-06-17T00:15:29.354Z,17.49
2018-06-17T00:15:33.551Z,17.49
2018-06-17T00:15:37.757Z,17.57
2018-06-17T00:15:41.958Z,17.63
2018-06-17T00:15:46.167Z,17.54
2018-06-17T00:15:50.285Z,17.57
2018-06-17T00:15:54.602Z,17.54
2018-06-17T00:15:58.944Z,17.54
2018-06-17T00:16:03.303Z,17.51
2018-06-17T00:16:07.507Z,17.6
2018-06-17T00:16:11.712Z,17.58
2018-06-17T00:16:15.917Z,17.58
2018-06-17T00:16:20.223Z,17.58
2018-06-17T00:16:24.209Z,17.63
2018-06-17T00:16:28.518Z,17.51
2018-06-17T00:16:32.618Z,17.54
2018-06-17T00:16:36.828Z,17.63
2018-06-17T00:16:41.139Z,17.58
2018-06-17T00:16:45.238Z,17.62
2018-06-17T00:16:49.543Z,17.63
2018-06-17T00:16:53.747Z,17.54
2018-06-17T00:16:57.949Z,17.6
2018-06-17T00:17:02.155Z,17.54
2018-06-17T00:17:06.146Z,17.65
2018-06-17T00:17:10.349Z,17.62
2018-06-17T00:17:14.451Z,17.57
2018-06-17T00:17:18.657Z,17.57
2018-06-17T00:17:22.750Z,17.6
2018-06-17T00:17:27.061Z,17.6
2018-06-17T00:17:31.374Z,17.51
2018-06-17T00:17:35.472Z,17.57
2018-06-17T00:17:39.791Z,17.58
2018-06-17T00:17:44.096Z,17.55
2018-06-17T00:17:48.201Z,17.6
2018-06-17T00:17:52.301Z,17.53
2018-06-17T00:17:56.502Z,17.51
2018-06-17T00:18:00.809Z,17.6
2018-06-17T00:18:04.923Z,17.57
2018-06-17T00:18:09.131Z,17.66
2018-06-17T00:18:13.335Z,17.58
2018-06-17T00:18:17.646Z,17.53
2018-06-17T00:18:21.852Z,17.6
2018-06-17T00:18:26.051Z,17.6
2018-06-17T00:18:30.365Z,17.58
2018-06-17T00:18:34.463Z,17.58
2018-06-17T00:18:38.460Z,17.62
2018-06-17T00:18:42.663Z,17.6
2018-06-17T00:18:46.863Z,17.62
2018-06-17T00:18:50.853Z,17.58
2018-06-17T00:18:55.108Z,17.7
2018-06-17T00:18:59.308Z,17.62
2018-06-17T00:19:03.348Z,17.51
2018-06-17T00:19:07.547Z,17.6
2018-06-17T00:19:11.855Z,17.62
2018-06-17T00:19:15.949Z,17.58
2018-06-17T00:19:19.939Z,17.58
2018-06-17T00:19:24.160Z,17.54
2018-06-17T00:19:28.254Z,17.62
2018-06-17T00:20:04.245Z,17.62
2018-06-17T00:20:08.449Z,17.7
2018-06-17T00:20:12.656Z,17.6
2018-06-17T00:20:16.866Z,17.65
2018-06-17T00:20:20.966Z,17.7
2018-06-17T00:20:25.290Z,17.6
2018-06-17T00:20:29.492Z,17.6
2018-06-17T00:20:33.802Z,17.71
2018-06-17T00:20:38.007Z,17.7
2018-06-17T00:20:42.106Z,17.62
2018-06-17T00:20:46.420Z,17.6
2018-06-17T00:20:50.548Z,17.6
2018-06-17T00:20:54.860Z,17.6
2018-06-17T00:20:59.075Z,17.6
2018-06-17T00:21:03.174Z,17.53
2018-06-17T00:21:07.166Z,17.6
2018-06-17T00:21:11.481Z,17.51
2018-06-17T00:21:15.682Z,17.53
2018-06-17T00:21:19.889Z,17.58
2018-06-17T00:21:24.101Z,17.62
2018-06-17T00:21:28.200Z,17.7
2018-06-17T00:21:32.410Z,17.65
2018-06-17T00:21:36.716Z,17.66
2018-06-17T00:21:40.602Z,17.63
2018-06-17T00:21:44.697Z,17.6
2018-06-17T00:21:48.907Z,17.6
2018-06-17T00:21:53.217Z,17.66
2018-06-17T00:21:57.535Z,17.58
2018-06-17T00:22:01.744Z,17.66
2018-06-17T00:22:05.844Z,17.71
2018-06-17T00:22:09.730Z,17.55
2018-06-17T00:22:13.945Z,17.57
2018-06-17T00:22:18.262Z,17.53
2018-06-17T00:22:22.580Z,17.58
2018-06-17T00:22:26.785Z,17.62
2018-06-17T00:22:31.099Z,17.65
2018-06-17T00:22:35.414Z,17.58
2018-06-17T00:22:39.730Z,17.55
2018-06-17T00:22:43.721Z,17.62
2018-06-17T00:22:48.032Z,17.65
2018-06-17T00:22:52.353Z,17.6
2018-06-17T00:22:56.567Z,17.58
2018-06-17T00:23:00.772Z,17.57
2018-06-17T00:23:04.979Z,17.6
2018-06-17T00:23:09.235Z,17.6
2018-06-17T00:23:13.344Z,17.58
2018-06-17T00:23:17.660Z,17.63
2018-06-17T00:23:21.860Z,17.66
2018-06-17T00:23:26.169Z,17.58
2018-06-17T00:23:30.160Z,17.62
2018-06-17T00:23:34.479Z,17.55
2018-06-17T00:23:38.790Z,17.6
2018-06-17T00:23:42.987Z,17.6
2018-06-17T00:23:47.083Z,17.62
2018-06-17T00:23:51.285Z,17.6
2018-06-17T00:23:55.492Z,17.68
2018-06-17T00:23:59.587Z,17.63
2018-06-17T00:24:03.847Z,17.58
2018-06-17T00:24:08.054Z,17.58
2018-06-17T00:24:12.363Z,17.53
2018-06-17T00:24:16.570Z,17.6
2018-06-17T00:24:20.881Z,17.58
2018-06-17T00:24:25.094Z,17.53
2018-06-17T00:24:29.303Z,17.6
2018-06-17T00:24:33.507Z,17.58
2018-06-17T00:24:37.714Z,17.62
2018-06-17T00:24:41.916Z,17.62
2018-06-17T00:24:46.007Z,17.62
2018-06-17T00:24:50.110Z,17.6
2018-06-17T00:24:54.311Z,17.66
2018-06-17T00:24:58.198Z,17.66
2018-06-17T00:25:02.299Z,17.58
2018-06-17T00:25:06.402Z,17.6
2018-06-17T00:25:10.618Z,17.62
2018-06-17T00:25:14.816Z,17.62
2018-06-17T00:25:19.140Z,17.6
2018-06-17T00:25:23.343Z,17.6
2018-06-17T00:25:27.553Z,17.71
2018-06-17T00:25:31.541Z,17.55
2018-06-17T00:25:35.639Z,17.57
2018-06-17T00:25:39.735Z,17.65
2018-06-17T00:25:43.933Z,17.62
2018-06-17T00:25:47.924Z,17.58
2018-06-17T00:25:52.236Z,17.63
2018-06-17T00:25:56.447Z,17.6
2018-06-17T00:26:00.760Z,17.65
2018-06-17T00:26:05.069Z,17.62
2018-06-17T00:26:09.168Z,17.65
2018-06-17T00:26:13.268Z,17.53
2018-06-17T00:26:17.580Z,17.6
2018-06-17T00:26:21.790Z,17.55
2018-06-17T00:26:25.996Z,17.6
2018-06-17T00:26:30.198Z,17.6
2018-06-17T00:26:34.405Z,17.65
2018-06-17T00:26:38.498Z,17.6
2018-06-17T00:26:42.704Z,17.6
2018-06-17T00:26:46.905Z,17.57
2018-06-17T00:26:51.107Z,17.6
2018-06-17T00:26:55.309Z,17.6
2018-06-17T00:26:59.650Z,17.51
2018-06-17T00:27:03.746Z,17.62
2018-06-17T00:27:07.963Z,17.6
2018-06-17T00:27:12.059Z,17.57
2018-06-17T00:27:16.368Z,17.55
2018-06-17T00:27:20.592Z,17.62
2018-06-17T00:27:24.800Z,17.58
2018-06-17T00:27:29.003Z,17.62
2018-06-17T00:27:33.106Z,17.51
2018-06-17T00:27:37.423Z,17.53
2018-06-17T00:27:41.645Z,17.63
2018-06-17T00:27:45.856Z,17.47
2018-06-17T00:27:50.175Z,17.6
2018-06-17T00:27:54.280Z,17.63
2018-06-17T00:27:58.484Z,17.58
2018-06-17T00:28:02.474Z,17.63
2018-06-17T00:28:06.684Z,17.55
2018-06-17T00:28:10.882Z,17.58
2018-06-17T00:28:15.191Z,17.57
2018-06-17T00:28:19.499Z,17.65
2018-06-17T00:28:23.709Z,17.57
2018-06-17T00:28:27.805Z,17.63
2018-06-17T00:28:31.904Z,17.6
2018-06-17T00:28:36.159Z,17.57
2018-06-17T00:28:40.252Z,17.66
2018-06-17T00:28:44.346Z,17.55
2018-06-17T00:28:48.658Z,17.63
2018-06-17T00:28:52.864Z,17.57
2018-06-17T00:28:57.072Z,17.63
2018-06-17T00:29:01.280Z,17.6
2018-06-17T00:29:05.490Z,17.58
2018-06-17T00:29:09.475Z,17.55
2018-06-17T00:29:13.567Z,17.63
2018-06-17T00:29:17.876Z,17.54
2018-06-17T00:29:22.074Z,17.57
2018-06-17T00:29:26.279Z,17.6
2018-06-17T00:29:30.496Z,17.63
2018-06-17T00:29:34.592Z,17.62
2018-06-17T00:29:38.796Z,17.6
2018-06-17T00:29:42.997Z,17.65
2018-06-17T00:29:47.092Z,17.63
2018-06-17T00:29:51.409Z,17.62
2018-06-17T00:29:55.505Z,17.62
2018-06-17T00:29:59.598Z,17.62
2018-06-17T00:30:03.478Z,17.57
2018-06-17T00:30:07.471Z,17.6
2018-06-17T00:30:11.673Z,17.54
2018-06-17T00:30:15.979Z,17.63
2018-06-17T00:30:20.075Z,17.57
2018-06-17T00:30:24.278Z,17.58
2018-06-17T00:30:28.602Z,17.58
2018-06-17T00:30:32.805Z,17.63
2018-06-17T00:30:36.898Z,17.53
2018-06-17T00:30:41.009Z,17.6
2018-06-17T00:30:45.327Z,17.63
2018-06-17T00:30:49.531Z,17.62
2018-06-17T00:30:53.742Z,17.62
2018-06-17T00:30:57.950Z,17.55
2018-06-17T00:31:02.166Z,17.54
2018-06-17T00:31:06.056Z,17.63
2018-06-17T00:31:10.355Z,17.51
2018-06-17T00:31:14.556Z,17.54
2018-06-17T00:31:18.757Z,17.53
2018-06-17T00:31:22.754Z,17.63
2018-06-17T00:31:27.068Z,17.54
2018-06-17T00:31:31.169Z,17.55
2018-06-17T00:31:35.479Z,17.55
2018-06-17T00:31:39.787Z,17.51
2018-06-17T00:31:43.881Z,17.57
2018-06-17T00:31:48.189Z,17.53
2018-06-17T00:31:52.500Z,17.51
2018-06-17T00:31:56.811Z,17.47
2018-06-17T00:32:01.013Z,17.47
2018-06-17T00:32:05.220Z,17.58
2018-06-17T00:32:09.533Z,17.43
2018-06-17T00:32:13.841Z,17.46
2018-06-17T00:32:17.940Z,17.49
2018-06-17T00:32:22.150Z,17.46
2018-06-17T00:32:26.352Z,17.54
2018-06-17T00:32:30.555Z,17.49
2018-06-17T00:32:34.761Z,17.47
2018-06-17T00:32:38.963Z,17.45
2018-06-17T00:32:43.193Z,17.47
2018-06-17T00:32:47.398Z,17.47
2018-06-17T00:32:51.708Z,17.43
2018-06-17T00:32:55.913Z,17.4
2018-06-17T00:33:00.112Z,17.46
2018-06-17T00:33:04.216Z,17.43
2018-06-17T00:33:08.423Z,17.45
2018-06-17T00:33:12.735Z,17.51
2018-06-17T00:33:16.723Z,17.4
2018-06-17T00:33:21.033Z,17.46
2018-06-17T00:33:25.262Z,17.47
2018-06-17T00:33:29.357Z,17.43
2018-06-17T00:33:33.673Z,17.4
2018-06-17T00:33:38.041Z,17.47
2018-06-17T00:33:42.239Z,17.45
2018-06-17T00:33:46.453Z,17.45
2018-06-17T00:33:50.653Z,17.45
2018-06-17T00:33:54.961Z,17.42
2018-06-17T00:33:58.953Z,17.43
2018-06-17T00:34:03.048Z,17.43
2018-06-17T00:34:07.255Z,17.39
2018-06-17T00:34:11.348Z,17.42
2018-06-17T00:34:15.660Z,17.51
2018-06-17T00:34:19.860Z,17.46
2018-06-17T00:34:24.165Z,17.47
2018-06-17T00:34:28.049Z,17.53
2018-06-17T00:34:32.143Z,17.46
2018-06-17T00:34:36.237Z,17.38
2018-06-17T00:34:40.438Z,17.4
2018-06-17T00:34:44.639Z,17.53
2018-06-17T00:34:48.960Z,17.45
2018-06-17T00:34:53.173Z,17.39
2018-06-17T00:34:57.483Z,17.47
2018-06-17T00:35:01.747Z,17.36
2018-06-17T00:35:05.954Z,17.45
2018-06-17T00:35:10.050Z,17.3
2018-06-17T00:35:14.142Z,17.45
2018-06-17T00:35:18.462Z,17.46
2018-06-17T00:35:22.448Z,17.42
2018-06-17T00:35:26.650Z,17.35
2018-06-17T00:35:30.964Z,17.42
2018-06-17T00:35:35.177Z,17.36
2018-06-17T00:35:39.432Z,17.3
2018-06-17T00:35:43.740Z,17.42
2018-06-17T00:35:48.048Z,17.35
2018-06-17T00:35:52.245Z,17.3
2018-06-17T00:35:56.444Z,17.3
2018-06-17T00:36:00.750Z,17.33
2018-06-17T00:36:04.957Z,17.35
2018-06-17T00:36:08.987Z,17.32
2018-06-17T00:36:13.200Z,17.36
2018-06-17T00:36:17.399Z,17.28
2018-06-17T00:36:21.706Z,17.35
2018-06-17T00:36:25.700Z,17.4
2018-06-17T00:36:29.907Z,17.35
2018-06-17T00:36:34.124Z,17.35
2018-06-17T00:36:38.433Z,17.43
2018-06-17T00:36:42.634Z,17.35
2018-06-17T00:36:46.834Z,17.36
2018-06-17T00:36:51.041Z,17.27
2018-06-17T00:36:55.355Z,17.33
2018-06-17T00:36:59.452Z,17.35
2018-06-17T00:37:03.671Z,17.35
2018-06-17T00:37:07.661Z,17.38
2018-06-17T00:37:11.866Z,17.36
2018-06-17T00:37:16.070Z,17.33
2018-06-17T00:37:20.272Z,17.32
2018-06-17T00:37:24.369Z,17.32
2018-06-17T00:37:28.677Z,17.27
2018-06-17T00:37:32.989Z,17.28
2018-06-17T00:37:37.300Z,17.32
2018-06-17T00:37:41.515Z,17.38
2018-06-17T00:37:45.827Z,17.33
2018-06-17T00:37:49.920Z,17.3
2018-06-17T00:37:54.124Z,17.33
2018-06-17T00:37:58.430Z,17.3
2018-06-17T00:38:02.519Z,17.21
2018-06-17T00:38:06.627Z,17.32
2018-06-17T00:38:10.832Z,17.32
2018-06-17T00:38:15.150Z,17.35
2018-06-17T00:38:19.464Z,17.32
2018-06-17T00:38:23.672Z,17.2
2018-06-17T00:38:27.768Z,17.22
2018-06-17T00:38:31.979Z,17.24
2018-06-17T00:38:35.975Z,17.25
2018-06-17T00:38:40.182Z,17.27
2018-06-17T00:38:44.384Z,17.32
2018-06-17T00:38:48.691Z,17.32
2018-06-17T00:38:52.900Z,17.27
2018-06-17T00:38:56.889Z,17.22
2018-06-17T00:39:01.093Z,17.25
2018-06-17T00:39:05.288Z,17.28
2018-06-17T00:39:09.660Z,17.25
2018-06-17T00:39:13.971Z,17.21
2018-06-17T00:39:18.071Z,17.25
2018-06-17T00:39:22.384Z,17.22
2018-06-17T00:39:26.478Z,17.21
2018-06-17T00:39:30.681Z,17.24
2018-06-17T00:39:34.992Z,17.22
2018-06-17T00:39:39.202Z,17.24
2018-06-17T00:39:43.513Z,17.22
2018-06-17T00:39:47.713Z,17.2
2018-06-17T00:39:52.024Z,17.18
2018-06-17T00:39:56.229Z,17.14
2018-06-17T00:40:00.327Z,17.17
2018-06-17T00:40:04.519Z,17.24
2018-06-17T00:40:08.616Z,17.21
2018-06-17T00:40:12.829Z,17.18
2018-06-17T00:40:17.040Z,17.21
2018-06-17T00:40:21.144Z,17.1
2018-06-17T00:40:25.343Z,17.15
2018-06-17T00:40:29.540Z,17.21
2018-06-17T00:40:33.751Z,17.2
2018-06-17T00:40:38.066Z,17.15
2018-06-17T00:40:41.950Z,17.15
2018-06-17T00:40:46.045Z,17.14
2018-06-17T00:40:50.357Z,17.21
2018-06-17T00:40:54.666Z,17.17
2018-06-17T00:40:58.880Z,17.17
2018-06-17T00:41:03.081Z,17.1
2018-06-17T00:41:07.073Z,17.12
2018-06-17T00:41:11.282Z,17.05
2018-06-17T00:41:15.488Z,17.09
2018-06-17T00:41:19.488Z,17.07
2018-06-17T00:41:23.798Z,17.09
2018-06-17T00:41:28.129Z,17.17
2018-06-17T00:41:32.434Z,17.06
2018-06-17T00:41:36.643Z,17.07
2018-06-17T00:41:40.743Z,17.12
2018-06-17T00:41:44.951Z,17.14
2018-06-17T00:41:49.153Z,17.06
2018-06-17T00:41:53.485Z,17
2018-06-17T00:41:57.698Z,17.12
2018-06-17T00:42:02.007Z,17.1
2018-06-17T00:42:06.110Z,17
2018-06-17T00:42:10.315Z,17.07
2018-06-17T00:42:14.427Z,17.09
2018-06-17T00:42:18.631Z,17.1
2018-06-17T00:42:22.945Z,17.07
2018-06-17T00:42:27.051Z,17.09
2018-06-17T00:42:31.253Z,17.1
2018-06-17T00:42:35.468Z,17.09
2018-06-17T00:42:39.787Z,16.96
2018-06-17T00:42:44.149Z,17
2018-06-17T00:42:48.248Z,17.06
2018-06-17T00:42:52.563Z,17.02
2018-06-17T00:42:56.769Z,16.96
2018-06-17T00:43:00.860Z,17.05
2018-06-17T00:43:04.744Z,17
2018-06-17T00:43:09.057Z,16.99
2018-06-17T00:43:13.279Z,17.03
2018-06-17T00:43:17.595Z,16.98
2018-06-17T00:43:21.700Z,17.03
2018-06-17T00:43:25.938Z,17.06
2018-06-17T00:43:30.248Z,16.95
2018-06-17T00:43:34.453Z,17.07
2018-06-17T00:43:38.653Z,17.05
2018-06-17T00:43:42.963Z,16.96
2018-06-17T00:43:47.173Z,16.95
2018-06-17T00:43:51.272Z,16.92
2018-06-17T00:43:55.482Z,16.9
2018-06-17T00:43:59.576Z,16.95
2018-06-17T00:44:03.887Z,17
2018-06-17T00:44:08.132Z,17.02
2018-06-17T00:44:12.340Z,16.99
2018-06-17T00:44:16.445Z,16.96
2018-06-17T00:44:20.766Z,17.06
2018-06-17T00:44:24.975Z,16.95
2018-06-17T00:44:29.179Z,16.99
2018-06-17T00:44:33.384Z,16.91
2018-06-17T00:44:37.588Z,16.99
2018-06-17T00:44:41.801Z,16.95
2018-06-17T00:44:46.107Z,16.99
2018-06-17T00:44:50.431Z,16.91
2018-06-17T00:44:54.635Z,16.88
2018-06-17T00:44:58.961Z,16.99
2018-06-17T00:45:03.171Z,16.88
2018-06-17T00:45:07.381Z,16.9
2018-06-17T00:45:11.488Z,16.8
2018-06-17T00:45:15.581Z,16.87
2018-06-17T00:45:19.794Z,16.87
2018-06-17T00:45:23.891Z,16.9
2018-06-17T00:45:27.992Z,16.84
2018-06-17T00:45:32.304Z,16.81
2018-06-17T00:45:36.514Z,16.82
2018-06-17T00:45:40.729Z,16.8
2018-06-17T00:45:44.936Z,16.84
2018-06-17T00:45:49.250Z,16.87
2018-06-17T00:45:53.342Z,16.72
2018-06-17T00:45:57.659Z,16.75
2018-06-17T00:46:01.969Z,16.75
2018-06-17T00:46:05.859Z,16.8
2018-06-17T00:46:10.066Z,16.7
2018-06-17T00:46:14.050Z,16.67
2018-06-17T00:46:18.362Z,16.69
2018-06-17T00:46:22.683Z,16.73
2018-06-17T00:46:26.782Z,16.63
2018-06-17T00:46:31.093Z,16.78
2018-06-17T00:46:35.401Z,16.65
2018-06-17T00:46:39.394Z,16.62
2018-06-17T00:46:43.596Z,16.62
2018-06-17T00:46:47.899Z,16.66
2018-06-17T00:46:52.215Z,16.63
2018-06-17T00:46:56.423Z,16.62
2018-06-17T00:47:00.638Z,16.65
2018-06-17T00:47:04.732Z,16.65
2018-06-17T00:47:08.968Z,16.55
2018-06-17T00:47:13.011Z,16.63
2018-06-17T00:47:17.450Z,16.6
2018-06-17T00:47:22.334Z,16.62
2018-06-17T00:47:26.733Z,16.52
2018-06-17T00:47:31.051Z,16.55
2018-06-17T00:47:35.366Z,16.52
2018-06-17T00:47:39.571Z,16.6
2018-06-17T00:47:43.771Z,16.54
2018-06-17T00:47:48.082Z,16.51
2018-06-17T00:47:52.443Z,16.5
2018-06-17T00:47:56.758Z,16.47
2018-06-17T00:48:00.850Z,16.55
2018-06-17T00:48:05.064Z,16.51
2018-06-17T00:48:09.270Z,16.52
2018-06-17T00:48:13.583Z,16.48
2018-06-17T00:48:17.681Z,16.42
2018-06-17T00:48:21.880Z,16.48
2018-06-17T00:48:25.973Z,16.5
2018-06-17T00:48:30.289Z,16.42
2018-06-17T00:48:34.601Z,16.44
2018-06-17T00:48:38.915Z,16.44
2018-06-17T00:48:43.013Z,16.51
2018-06-17T00:48:47.322Z,16.45
2018-06-17T00:48:51.521Z,16.45
2018-06-17T00:48:55.614Z,16.51
2018-06-17T00:48:59.820Z,16.45
2018-06-17T00:49:03.916Z,16.34
2018-06-17T00:49:08.123Z,16.41
2018-06-17T00:49:12.329Z,16.37
2018-06-17T00:49:16.671Z,16.41
2018-06-17T00:49:20.983Z,16.41
2018-06-17T00:49:25.192Z,16.33
2018-06-17T00:49:29.508Z,16.48
2018-06-17T00:49:33.604Z,16.36
2018-06-17T00:49:37.808Z,16.34
2018-06-17T00:49:42.172Z,16.32
2018-06-17T00:49:46.379Z,16.34
2018-06-17T00:49:50.582Z,16.34
2018-06-17T00:49:54.894Z,16.33
2018-06-17T00:49:59.205Z,16.33
2018-06-17T00:50:03.431Z,16.4
2018-06-17T00:50:07.573Z,16.42
2018-06-17T00:50:11.878Z,16.4
2018-06-17T00:50:16.084Z,16.37
2018-06-17T00:50:20.282Z,16.33
2018-06-17T00:50:24.592Z,16.36
2018-06-17T00:50:28.793Z,16.37
2018-06-17T00:50:33.008Z,16.37
2018-06-17T00:50:37.318Z,16.36
2018-06-17T00:50:41.521Z,16.36
2018-06-17T00:50:45.732Z,16.25
2018-06-17T00:50:49.938Z,16.36
2018-06-17T00:50:54.141Z,16.34
2018-06-17T00:50:58.456Z,16.32
2018-06-17T00:51:02.653Z,16.23
2018-06-17T00:51:06.642Z,16.34
2018-06-17T00:51:10.842Z,16.32
2018-06-17T00:51:15.162Z,16.29
2018-06-17T00:51:19.470Z,16.29
2018-06-17T00:51:23.571Z,16.25
2018-06-17T00:51:27.565Z,16.3
2018-06-17T00:51:31.549Z,16.3
2018-06-17T00:51:35.750Z,16.3
2018-06-17T00:51:39.846Z,16.16
2018-06-17T00:51:43.944Z,16.25
2018-06-17T00:51:48.145Z,16.27
2018-06-17T00:51:52.346Z,16.22
2018-06-17T00:51:56.564Z,16.17
2018-06-17T00:52:00.766Z,16.17
2018-06-17T00:52:04.860Z,16.14
2018-06-17T00:52:09.060Z,16.22
2018-06-17T00:52:13.157Z,16.14
2018-06-17T00:52:17.257Z,16.17
2018-06-17T00:52:21.567Z,16.22
2018-06-17T00:52:25.820Z,16.18
2018-06-17T00:52:29.928Z,16.18
2018-06-17T00:52:34.130Z,16.18
2018-06-17T00:52:38.333Z,16.23
2018-06-17T00:52:42.431Z,16.16
2018-06-17T00:52:46.739Z,16.16
2018-06-17T00:52:50.941Z,16.17
2018-06-17T00:52:55.255Z,16.18
2018-06-17T00:52:59.568Z,16.25
2018-06-17T00:53:03.666Z,16.22
2018-06-17T00:53:07.879Z,16.16
2018-06-17T00:53:11.976Z,16.13
2018-06-17T00:53:16.179Z,16.14
2018-06-17T00:53:20.487Z,16.1
2018-06-17T00:53:24.694Z,16.13
2018-06-17T00:53:28.904Z,16.13
2018-06-17T00:53:33.215Z,16.08
2018-06-17T00:53:37.473Z,16.17
2018-06-17T00:53:41.781Z,16.14
2018-06-17T00:53:46.110Z,16.1
2018-06-17T00:53:50.213Z,16.18
2018-06-17T00:53:54.422Z,16.16
2018-06-17T00:53:58.517Z,16.16
2018-06-17T00:54:02.730Z,16.11
2018-06-17T00:54:07.044Z,16.17
2018-06-17T00:54:11.246Z,16.16
2018-06-17T00:54:15.450Z,16.14
2018-06-17T00:54:19.771Z,16.13
2018-06-17T00:54:24.085Z,16.13
2018-06-17T00:54:27.974Z,16.11
2018-06-17T00:54:32.288Z,16.13
2018-06-17T00:54:36.384Z,16.11
2018-06-17T00:54:40.589Z,16.17
2018-06-17T00:54:44.891Z,16.06
2018-06-17T00:54:49.198Z,16.08
2018-06-17T00:54:53.396Z,15.99